createdAt,value
2022-11-10T00:00:11.356Z,10.05
2022-11-10T00:01:12.877Z,10.02
2022-11-10T00:02:14.378Z,9.81
2022-11-10T00:03:16.009Z,9.60
2022-11-10T00:04:17.671Z,9.45
2022-11-10T00:05:19.329Z,9.41
2022-11-10T00:06:20.871Z,9.35
2022-11-10T00:07:26.431Z,9.26
2022-11-10T00:08:27.978Z,9.24
2022-11-10T00:09:29.821Z,9.20
2022-11-10T00:10:32.171Z,9.18
2022-11-10T00:11:33.776Z,9.18
2022-11-10T00:12:35.910Z,9.18
2022-11-10T00:13:58.194Z,9.21
2022-11-10T00:15:18.762Z,9.23
2022-11-10T00:16:38.506Z,9.19
2022-11-10T00:17:40.091Z,9.18
2022-11-10T00:18:41.622Z,9.23
2022-11-10T00:19:43.298Z,9.29
2022-11-10T00:20:44.819Z,9.31
2022-11-10T00:21:46.488Z,9.34
2022-11-10T00:22:48.019Z,9.32
2022-11-10T00:23:49.547Z,9.28
2022-11-10T00:24:51.232Z,9.32
2022-11-10T00:25:52.867Z,9.36
2022-11-10T00:26:55.136Z,9.41
2022-11-10T00:27:59.910Z,9.46
2022-11-10T00:29:01.520Z,9.49
2022-11-10T00:30:03.260Z,9.52
2022-11-10T00:31:06.060Z,9.53
2022-11-10T00:32:08.063Z,9.56
2022-11-10T00:33:09.618Z,9.57
2022-11-10T00:34:12.839Z,9.59
2022-11-10T00:35:14.481Z,9.56
2022-11-10T00:36:15.967Z,9.56
2022-11-10T00:37:17.536Z,9.54
2022-11-10T00:38:19.138Z,9.56
2022-11-10T00:39:20.660Z,9.62
2022-11-10T00:40:22.954Z,9.70
2022-11-10T00:41:24.502Z,9.73
2022-11-10T00:42:26.057Z,9.74
2022-11-10T00:43:29.384Z,9.73
2022-11-10T00:44:31.371Z,9.72
2022-11-10T00:45:33.012Z,9.75
2022-11-10T00:46:34.615Z,9.83
2022-11-10T00:47:36.330Z,9.89
2022-11-10T00:48:37.900Z,9.91
2022-11-10T00:49:39.566Z,9.94
2022-11-10T00:50:41.722Z,9.96
2022-11-10T00:51:43.329Z,9.96
2022-11-10T00:52:44.984Z,9.96
2022-11-10T00:53:46.534Z,9.93
2022-11-10T00:54:48.136Z,9.90
2022-11-10T00:55:50.403Z,9.88
2022-11-10T00:56:51.932Z,9.85
2022-11-10T00:57:53.455Z,9.82
2022-11-10T00:58:55.343Z,9.82
2022-11-10T00:59:56.879Z,9.84
2022-11-10T01:01:05.572Z,9.84
2022-11-10T01:02:07.201Z,9.83
2022-11-10T01:03:15.723Z,9.87
2022-11-10T01:04:17.265Z,9.90
2022-11-10T01:05:18.900Z,9.89
2022-11-10T01:06:21.844Z,9.85
2022-11-10T01:07:23.380Z,9.83
2022-11-10T01:08:25.271Z,9.81
2022-11-10T01:09:27.227Z,9.78
2022-11-10T01:10:28.954Z,9.76
2022-11-10T01:11:30.568Z,9.76
2022-11-10T01:12:32.139Z,9.74
2022-11-10T01:13:34.121Z,9.73
2022-11-10T01:14:35.689Z,9.69
2022-11-10T01:15:41.223Z,9.66
2022-11-10T01:16:42.810Z,9.66
2022-11-10T01:17:44.418Z,9.64
2022-11-10T01:18:51.163Z,9.66
2022-11-10T01:19:52.705Z,9.67
2022-11-10T01:20:54.219Z,9.67
2022-11-10T01:21:55.742Z,9.65
2022-11-10T01:22:57.264Z,9.65
2022-11-10T01:23:59.127Z,9.65
2022-11-10T01:25:00.819Z,9.69
2022-11-10T01:26:05.143Z,9.72
2022-11-10T01:27:06.719Z,9.81
2022-11-10T01:28:08.287Z,9.84
2022-11-10T01:29:09.803Z,9.71
2022-11-10T01:30:12.082Z,9.57
2022-11-10T01:31:16.079Z,9.34
2022-11-10T01:32:17.659Z,9.19
2022-11-10T01:33:19.434Z,9.12
2022-11-10T01:34:21.226Z,8.99
2022-11-10T01:35:22.807Z,8.94
2022-11-10T01:36:24.326Z,8.89
2022-11-10T01:37:25.865Z,8.79
2022-11-10T01:38:29.342Z,8.65
2022-11-10T01:39:30.893Z,8.67
2022-11-10T01:40:32.435Z,8.70
2022-11-10T01:41:34.049Z,8.75
2022-11-10T01:42:46.016Z,8.79
2022-11-10T01:43:47.541Z,8.80
2022-11-10T01:45:23.998Z,8.86
2022-11-10T01:46:26.306Z,8.87
2022-11-10T01:47:27.930Z,8.90
2022-11-10T01:48:52.795Z,8.96
2022-11-10T01:49:54.657Z,9.00
2022-11-10T01:51:10.082Z,9.02
2022-11-10T01:52:14.107Z,9.08
2022-11-10T01:53:23.254Z,9.16
2022-11-10T01:54:36.278Z,9.15
2022-11-10T01:55:41.486Z,9.08
2022-11-10T01:56:47.738Z,8.88
2022-11-10T01:57:49.346Z,8.75
2022-11-10T01:58:58.491Z,8.71
2022-11-10T02:00:00.382Z,8.78
2022-11-10T02:01:02.087Z,8.77
2022-11-10T02:02:14.109Z,8.84
2022-11-10T02:03:31.986Z,8.88
2022-11-10T02:04:34.966Z,8.94
2022-11-10T02:05:37.043Z,8.99
2022-11-10T02:06:41.883Z,9.03
2022-11-10T02:07:43.997Z,9.13
2022-11-10T02:08:46.279Z,9.14
2022-11-10T02:09:48.056Z,9.16
2022-11-10T02:10:49.564Z,9.12
2022-11-10T02:11:54.273Z,9.12
2022-11-10T02:12:55.803Z,9.13
2022-11-10T02:13:57.507Z,9.17
2022-11-10T02:14:59.318Z,9.22
2022-11-10T02:16:00.948Z,9.27
2022-11-10T02:17:02.592Z,9.30
2022-11-10T02:18:04.212Z,9.24
2022-11-10T02:19:25.076Z,9.15
2022-11-10T02:20:26.608Z,9.11
2022-11-10T02:21:28.139Z,9.11
2022-11-10T02:22:29.663Z,9.09
2022-11-10T02:23:31.231Z,9.09
2022-11-10T02:24:32.889Z,9.09
2022-11-10T02:25:34.789Z,9.14
2022-11-10T02:26:42.272Z,9.18
2022-11-10T02:27:43.860Z,9.21
2022-11-10T02:28:45.426Z,9.21
2022-11-10T02:29:47.081Z,9.23
2022-11-10T02:30:48.923Z,9.06
2022-11-10T02:31:50.519Z,8.78
2022-11-10T02:32:52.039Z,8.48
2022-11-10T02:33:53.567Z,8.29
2022-11-10T02:34:55.109Z,8.23
2022-11-10T02:35:56.941Z,8.31
2022-11-10T02:36:58.512Z,8.41
2022-11-10T02:38:00.153Z,8.47
2022-11-10T02:39:01.754Z,8.57
2022-11-10T02:40:03.750Z,8.59
2022-11-10T02:41:05.475Z,8.64
2022-11-10T02:42:10.460Z,8.66
2022-11-10T02:43:14.638Z,8.71
2022-11-10T02:44:16.319Z,8.77
2022-11-10T02:45:17.847Z,8.83
2022-11-10T02:46:19.383Z,8.92
2022-11-10T02:47:20.927Z,8.97
2022-11-10T02:48:22.511Z,9.02
2022-11-10T02:49:24.136Z,9.06
2022-11-10T02:50:25.658Z,9.05
2022-11-10T02:51:27.187Z,9.08
2022-11-10T02:52:28.724Z,9.14
2022-11-10T02:53:30.298Z,9.18
2022-11-10T02:54:31.837Z,9.25
2022-11-10T02:55:33.557Z,9.27
2022-11-10T02:56:35.535Z,9.34
2022-11-10T02:57:37.692Z,9.35
2022-11-10T02:58:39.192Z,9.35
2022-11-10T02:59:40.792Z,9.37
2022-11-10T03:00:42.336Z,9.43
2022-11-10T03:01:43.963Z,9.41
2022-11-10T03:02:45.775Z,9.37
2022-11-10T03:03:47.321Z,9.40
2022-11-10T03:04:48.831Z,9.40
2022-11-10T03:05:50.383Z,9.44
2022-11-10T03:06:51.926Z,9.40
2022-11-10T03:07:57.987Z,9.38
2022-11-10T03:08:59.799Z,9.39
2022-11-10T03:10:01.416Z,9.40
2022-11-10T03:11:02.994Z,9.42
2022-11-10T03:12:04.650Z,9.44
2022-11-10T03:13:06.245Z,9.48
2022-11-10T03:14:07.757Z,9.48
2022-11-10T03:15:09.810Z,9.51
2022-11-10T03:16:11.305Z,9.53
2022-11-10T03:17:12.908Z,9.55
2022-11-10T03:18:14.485Z,9.56
2022-11-10T03:19:16.118Z,9.58
2022-11-10T03:20:18.527Z,9.58
2022-11-10T03:21:20.076Z,9.59
2022-11-10T03:22:21.625Z,9.58
2022-11-10T03:23:23.311Z,9.58
2022-11-10T03:24:25.059Z,9.60
2022-11-10T03:25:26.588Z,9.61
2022-11-10T03:26:28.086Z,9.63
2022-11-10T03:27:29.624Z,9.59
2022-11-10T03:28:31.160Z,9.56
2022-11-10T03:29:32.772Z,9.61
2022-11-10T03:30:34.763Z,9.63
2022-11-10T03:31:36.306Z,9.69
2022-11-10T03:32:37.856Z,9.68
2022-11-10T03:33:39.381Z,9.74
2022-11-10T03:34:40.983Z,9.77
2022-11-10T03:35:42.651Z,9.78
2022-11-10T03:36:44.763Z,9.75
2022-11-10T03:37:46.279Z,9.79
2022-11-10T03:38:47.818Z,9.78
2022-11-10T03:39:49.544Z,9.73
2022-11-10T03:41:17.569Z,9.71
2022-11-10T03:42:12.623Z,9.70
2022-11-10T03:43:14.185Z,9.67
2022-11-10T03:44:15.750Z,9.66
2022-11-10T03:45:17.485Z,9.62
2022-11-10T03:46:19.233Z,9.58
2022-11-10T03:47:21.018Z,9.49
2022-11-10T03:48:22.656Z,9.45
2022-11-10T03:49:24.216Z,9.43
2022-11-10T03:50:25.772Z,9.41
2022-11-10T03:51:27.280Z,9.42
2022-11-10T03:52:28.800Z,9.42
2022-11-10T03:53:30.335Z,9.45
2022-11-10T03:54:31.896Z,9.46
2022-11-10T03:55:33.483Z,9.45
2022-11-10T03:56:35.362Z,9.51
2022-11-10T03:57:36.891Z,9.52
2022-11-10T03:58:38.383Z,9.58
2022-11-10T03:59:39.948Z,9.57
2022-11-10T04:00:41.538Z,9.59
2022-11-10T04:01:43.070Z,9.61
2022-11-10T04:02:44.680Z,9.63
2022-11-10T04:03:51.340Z,9.62
2022-11-10T04:05:12.697Z,9.57
2022-11-10T04:06:32.845Z,9.49
2022-11-10T04:07:53.164Z,9.39
2022-11-10T04:09:00.565Z,9.28
2022-11-10T04:10:02.088Z,9.20
2022-11-10T04:11:04.264Z,9.19
2022-11-10T04:12:25.164Z,9.18
2022-11-10T04:13:45.483Z,9.14
2022-11-10T04:15:05.780Z,9.13
2022-11-10T04:16:07.494Z,9.12
2022-11-10T04:17:09.700Z,9.13
2022-11-10T04:18:21.407Z,9.12
2022-11-10T04:19:23.025Z,9.13
2022-11-10T04:20:24.536Z,9.14
2022-11-10T04:21:26.089Z,9.12
2022-11-10T04:22:46.136Z,9.08
2022-11-10T04:23:47.647Z,9.05
2022-11-10T04:24:49.177Z,9.03
2022-11-10T04:26:09.544Z,9.03
2022-11-10T04:27:11.096Z,8.99
2022-11-10T04:28:12.606Z,9.00
2022-11-10T04:29:18.573Z,8.99
2022-11-10T04:30:20.176Z,9.02
2022-11-10T04:31:23.457Z,9.08
2022-11-10T04:32:25.168Z,9.08
2022-11-10T04:33:26.695Z,9.07
2022-11-10T04:34:28.219Z,9.11
2022-11-10T04:35:29.786Z,9.14
2022-11-10T04:36:32.772Z,9.15
2022-11-10T04:37:34.299Z,9.17
2022-11-10T04:38:36.079Z,9.19
2022-11-10T04:39:37.567Z,9.21
2022-11-10T04:40:39.063Z,9.19
2022-11-10T04:41:40.673Z,9.18
2022-11-10T04:42:42.367Z,9.22
2022-11-10T04:43:44.558Z,9.25
2022-11-10T04:44:46.115Z,9.27
2022-11-10T04:45:47.717Z,9.29
2022-11-10T04:46:49.563Z,9.27
2022-11-10T04:47:51.119Z,9.28
2022-11-10T04:48:54.210Z,9.30
2022-11-10T04:49:55.802Z,9.32
2022-11-10T04:50:57.486Z,9.35
2022-11-10T04:51:59.207Z,9.38
2022-11-10T04:53:00.870Z,9.38
2022-11-10T04:54:03.137Z,9.41
2022-11-10T04:55:05.034Z,9.45
2022-11-10T04:56:06.756Z,9.49
2022-11-10T04:57:08.266Z,9.46
2022-11-10T04:58:10.488Z,9.53
2022-11-10T04:59:12.026Z,9.56
2022-11-10T05:00:14.130Z,9.53
2022-11-10T05:01:21.298Z,9.44
2022-11-10T05:02:22.895Z,9.32
2022-11-10T05:03:26.554Z,9.22
2022-11-10T05:04:28.070Z,9.18
2022-11-10T05:05:29.690Z,9.12
2022-11-10T05:06:31.252Z,9.07
2022-11-10T05:07:32.881Z,9.08
2022-11-10T05:08:34.539Z,9.15
2022-11-10T05:09:36.121Z,9.13
2022-11-10T05:10:38.450Z,9.13
2022-11-10T05:11:39.962Z,9.13
2022-11-10T05:12:41.527Z,9.17
2022-11-10T05:13:44.534Z,9.17
2022-11-10T05:14:46.883Z,9.11
2022-11-10T05:15:48.541Z,9.11
2022-11-10T05:16:50.078Z,9.18
2022-11-10T05:17:53.374Z,9.20
2022-11-10T05:18:56.077Z,9.15
2022-11-10T05:19:57.646Z,9.07
2022-11-10T05:20:59.951Z,9.04
2022-11-10T05:22:01.571Z,9.01
2022-11-10T05:23:22.220Z,9.02
2022-11-10T05:24:24.055Z,9.05
2022-11-10T05:25:25.802Z,8.99
2022-11-10T05:26:27.316Z,8.97
2022-11-10T05:27:29.979Z,8.97
2022-11-10T05:28:31.613Z,9.00
2022-11-10T05:29:33.195Z,9.02
2022-11-10T05:30:35.663Z,8.96
2022-11-10T05:31:37.239Z,8.89
2022-11-10T05:32:38.818Z,8.85
2022-11-10T05:33:40.574Z,8.82
2022-11-10T05:34:42.121Z,8.75
2022-11-10T05:35:44.292Z,8.71
2022-11-10T05:36:45.929Z,8.75
2022-11-10T05:37:47.569Z,8.82
2022-11-10T05:38:49.104Z,8.89
2022-11-10T05:39:50.617Z,8.92
2022-11-10T05:40:52.484Z,8.98
2022-11-10T05:41:54.501Z,9.04
2022-11-10T05:42:56.206Z,9.10
2022-11-10T05:43:57.771Z,9.16
2022-11-10T05:44:59.311Z,9.22
2022-11-10T05:46:00.944Z,9.15
2022-11-10T05:47:02.906Z,9.13
2022-11-10T05:48:04.655Z,9.12
2022-11-10T05:49:06.199Z,9.17
2022-11-10T05:50:09.040Z,9.22
2022-11-10T05:51:10.574Z,9.21
2022-11-10T05:52:12.149Z,9.20
2022-11-10T05:53:13.773Z,9.25
2022-11-10T05:54:15.546Z,9.31
2022-11-10T05:55:19.697Z,9.36
2022-11-10T05:56:21.259Z,9.41
2022-11-10T05:57:22.805Z,9.32
2022-11-10T05:58:24.399Z,9.09
2022-11-10T05:59:25.922Z,8.84
2022-11-10T06:00:29.998Z,8.86
2022-11-10T06:01:31.550Z,8.76
2022-11-10T06:02:33.135Z,8.73
2022-11-10T06:03:34.734Z,8.74
2022-11-10T06:04:36.300Z,8.81
2022-11-10T06:05:37.943Z,8.83
2022-11-10T06:06:39.551Z,8.93
2022-11-10T06:07:41.121Z,9.01
2022-11-10T06:08:42.655Z,8.90
2022-11-10T06:09:44.403Z,8.88
2022-11-10T06:10:45.996Z,8.99
2022-11-10T06:11:47.488Z,9.04
2022-11-10T06:12:49.112Z,9.13
2022-11-10T06:13:50.632Z,9.22
2022-11-10T06:14:52.145Z,9.23
2022-11-10T06:15:53.714Z,9.18
2022-11-10T06:16:55.344Z,9.19
2022-11-10T06:17:57.250Z,9.26
2022-11-10T06:18:58.766Z,9.32
2022-11-10T06:20:00.247Z,9.36
2022-11-10T06:21:01.795Z,9.44
2022-11-10T06:22:07.525Z,9.46
2022-11-10T06:23:13.925Z,9.50
2022-11-10T06:24:15.580Z,9.46
2022-11-10T06:25:17.142Z,9.50
2022-11-10T06:26:18.911Z,9.46
2022-11-10T06:27:20.415Z,9.31
2022-11-10T06:28:21.986Z,9.22
2022-11-10T06:29:26.798Z,9.13
2022-11-10T06:30:30.659Z,9.11
2022-11-10T06:31:32.324Z,9.00
2022-11-10T06:32:35.137Z,8.86
2022-11-10T06:33:36.693Z,8.82
2022-11-10T06:34:41.411Z,8.83
2022-11-10T06:35:42.922Z,8.79
2022-11-10T06:36:44.439Z,8.73
2022-11-10T06:37:46.110Z,8.73
2022-11-10T06:38:47.916Z,8.76
2022-11-10T06:39:49.494Z,8.64
2022-11-10T06:40:51.032Z,8.59
2022-11-10T06:41:52.647Z,8.70
2022-11-10T06:42:54.588Z,8.73
2022-11-10T06:43:56.265Z,8.76
2022-11-10T06:44:57.807Z,8.79
2022-11-10T06:45:59.334Z,8.80
2022-11-10T06:47:00.893Z,8.80
2022-11-10T06:48:07.830Z,8.82
2022-11-10T06:49:09.370Z,8.87
2022-11-10T06:50:10.963Z,8.92
2022-11-10T06:51:12.540Z,8.90
2022-11-10T06:52:14.213Z,8.91
2022-11-10T06:53:17.109Z,8.91
2022-11-10T06:54:18.613Z,8.93
2022-11-10T06:55:20.611Z,8.93
2022-11-10T06:56:22.215Z,8.99
2022-11-10T06:57:23.735Z,9.02
2022-11-10T06:58:25.247Z,9.14
2022-11-10T06:59:26.800Z,9.19
2022-11-10T07:00:29.406Z,9.24
2022-11-10T07:01:31.067Z,9.34
2022-11-10T07:02:32.622Z,9.39
2022-11-10T07:03:38.870Z,9.23
2022-11-10T07:04:46.031Z,9.34
2022-11-10T07:05:47.570Z,9.44
2022-11-10T07:06:49.231Z,9.55
2022-11-10T07:07:51.791Z,9.62
2022-11-10T07:08:53.357Z,9.67
2022-11-10T07:09:54.886Z,9.67
2022-11-10T07:10:56.601Z,9.73
2022-11-10T07:11:58.164Z,9.81
2022-11-10T07:13:01.524Z,9.89
2022-11-10T07:14:03.120Z,9.95
2022-11-10T07:15:05.603Z,9.96
2022-11-10T07:16:08.339Z,10.02
2022-11-10T07:17:09.911Z,10.01
2022-11-10T07:18:11.579Z,10.06
2022-11-10T07:19:14.609Z,10.16
2022-11-10T07:20:16.323Z,10.21
2022-11-10T07:21:17.843Z,10.29
2022-11-10T07:22:19.418Z,10.34
2022-11-10T07:23:21.323Z,10.36
2022-11-10T07:24:23.232Z,10.41
2022-11-10T07:25:25.069Z,10.44
2022-11-10T07:26:26.681Z,10.52
2022-11-10T07:27:28.245Z,10.55
2022-11-10T07:28:29.877Z,10.58
2022-11-10T07:29:31.404Z,10.61
2022-11-10T07:30:34.796Z,10.61
2022-11-10T07:31:36.344Z,10.65
2022-11-10T07:32:37.871Z,10.65
2022-11-10T07:33:39.434Z,10.69
2022-11-10T07:34:40.965Z,10.73
2022-11-10T07:35:42.547Z,10.72
2022-11-10T07:36:44.124Z,10.64
2022-11-10T07:37:45.667Z,10.67
2022-11-10T07:38:47.503Z,10.70
2022-11-10T07:39:49.052Z,10.75
2022-11-10T07:40:52.147Z,10.71
2022-11-10T07:41:53.673Z,10.68
2022-11-10T07:42:55.249Z,10.72
2022-11-10T07:43:56.820Z,10.70
2022-11-10T07:44:58.319Z,10.60
2022-11-10T07:46:00.836Z,10.64
2022-11-10T07:47:02.411Z,10.73
2022-11-10T07:48:07.157Z,10.77
2022-11-10T07:49:08.797Z,10.81
2022-11-10T07:50:10.968Z,10.86
2022-11-10T07:51:12.606Z,10.86
2022-11-10T07:52:14.150Z,10.92
2022-11-10T07:53:17.676Z,10.95
2022-11-10T07:54:19.255Z,10.99
2022-11-10T07:55:21.861Z,11.07
2022-11-10T07:56:23.385Z,11.03
2022-11-10T07:57:24.942Z,11.07
2022-11-10T07:58:26.524Z,11.07
2022-11-10T07:59:28.190Z,11.05
2022-11-10T08:00:30.128Z,11.08
2022-11-10T08:01:31.723Z,11.13
2022-11-10T08:02:33.275Z,11.17
2022-11-10T08:03:34.843Z,11.18
2022-11-10T08:04:36.379Z,11.21
2022-11-10T08:05:38.408Z,11.25
2022-11-10T08:06:40.201Z,11.31
2022-11-10T08:07:42.011Z,11.34
2022-11-10T08:08:43.580Z,11.38
2022-11-10T08:09:45.154Z,11.45
2022-11-10T08:10:46.792Z,11.47
2022-11-10T08:11:48.351Z,11.51
2022-11-10T08:12:56.875Z,11.57
2022-11-10T08:13:58.391Z,11.55
2022-11-10T08:14:59.913Z,11.56
2022-11-10T08:16:01.462Z,11.48
2022-11-10T08:17:02.991Z,11.51
2022-11-10T08:18:19.280Z,11.47
2022-11-10T08:19:20.786Z,11.48
2022-11-10T08:20:22.601Z,11.53
2022-11-10T08:21:24.133Z,11.55
2022-11-10T08:22:25.672Z,11.53
2022-11-10T08:23:28.634Z,11.53
2022-11-10T08:24:30.160Z,11.46
2022-11-10T08:25:35.467Z,11.44
2022-11-10T08:26:37.319Z,11.43
2022-11-10T08:27:39.016Z,11.39
2022-11-10T08:28:40.710Z,11.40
2022-11-10T08:29:42.397Z,11.41
2022-11-10T08:30:47.002Z,11.44
2022-11-10T08:31:48.629Z,11.45
2022-11-10T08:32:50.231Z,11.44
2022-11-10T08:33:52.346Z,11.35
2022-11-10T08:34:53.876Z,11.30
2022-11-10T08:35:55.395Z,11.31
2022-11-10T08:36:56.965Z,11.36
2022-11-10T08:37:58.580Z,11.35
2022-11-10T08:39:00.182Z,11.33
2022-11-10T08:40:01.729Z,11.40
2022-11-10T08:41:03.524Z,11.32
2022-11-10T08:42:06.366Z,11.28
2022-11-10T08:43:08.496Z,11.24
2022-11-10T08:44:11.149Z,11.22
2022-11-10T08:45:13.577Z,11.15
2022-11-10T08:46:15.121Z,11.15
2022-11-10T08:47:16.652Z,11.20
2022-11-10T08:48:20.471Z,11.34
2022-11-10T08:49:22.031Z,11.34
2022-11-10T08:50:23.851Z,11.30
2022-11-10T08:51:25.574Z,11.29
2022-11-10T08:52:27.754Z,11.36
2022-11-10T08:53:29.368Z,11.40
2022-11-10T08:54:30.943Z,11.28
2022-11-10T08:55:32.803Z,11.25
2022-11-10T08:56:34.538Z,11.30
2022-11-10T08:57:36.058Z,11.32
2022-11-10T08:58:48.555Z,11.35
2022-11-10T08:59:54.421Z,11.39
2022-11-10T09:00:56.389Z,11.36
2022-11-10T09:01:58.079Z,11.33
2022-11-10T09:03:07.861Z,11.29
2022-11-10T09:04:09.489Z,11.30
2022-11-10T09:05:11.236Z,11.27
2022-11-10T09:06:12.856Z,11.26
2022-11-10T09:07:14.456Z,11.30
2022-11-10T09:08:17.076Z,11.36
2022-11-10T09:09:18.596Z,11.43
2022-11-10T09:10:20.129Z,11.43
2022-11-10T09:11:21.696Z,11.23
2022-11-10T09:12:23.245Z,11.09
2022-11-10T09:13:29.631Z,11.09
2022-11-10T09:14:31.929Z,11.16
2022-11-10T09:15:34.719Z,11.23
2022-11-10T09:16:36.444Z,11.14
2022-11-10T09:17:41.636Z,11.12
2022-11-10T09:18:43.165Z,11.03
2022-11-10T09:19:44.769Z,10.92
2022-11-10T09:20:46.443Z,10.94
2022-11-10T09:21:48.003Z,10.83
2022-11-10T09:22:49.591Z,10.74
2022-11-10T09:23:51.106Z,10.60
2022-11-10T09:24:52.653Z,10.59
2022-11-10T09:25:56.160Z,10.55
2022-11-10T09:26:57.688Z,10.51
2022-11-10T09:27:59.403Z,10.55
2022-11-10T09:29:00.952Z,10.57
2022-11-10T09:30:03.582Z,10.55
2022-11-10T09:31:05.145Z,10.57
2022-11-10T09:32:06.733Z,10.66
2022-11-10T09:33:08.691Z,10.67
2022-11-10T09:34:10.767Z,10.64
2022-11-10T09:35:13.624Z,10.60
2022-11-10T09:36:15.182Z,10.60
2022-11-10T09:37:16.692Z,10.63
2022-11-10T09:38:18.295Z,10.77
2022-11-10T09:39:19.989Z,10.94
2022-11-10T09:40:36.187Z,11.11
2022-11-10T09:41:43.813Z,11.26
2022-11-10T09:42:47.555Z,11.37
2022-11-10T09:44:10.994Z,11.30
2022-11-10T09:45:24.064Z,11.15
2022-11-10T09:46:46.111Z,11.11
2022-11-10T09:47:57.373Z,11.07
2022-11-10T09:49:10.269Z,11.13
2022-11-10T09:50:28.093Z,11.16
2022-11-10T09:51:35.629Z,11.27
2022-11-10T09:52:39.347Z,11.29
2022-11-10T09:53:50.629Z,11.15
2022-11-10T09:55:03.451Z,11.09
2022-11-10T09:56:07.145Z,11.04
2022-11-10T09:57:15.366Z,11.11
2022-11-10T09:58:18.546Z,11.23
2022-11-10T09:59:30.521Z,11.37
2022-11-10T10:00:34.822Z,11.52
2022-11-10T10:01:46.335Z,11.62
2022-11-10T10:02:59.392Z,11.71
2022-11-10T10:04:13.914Z,11.80
2022-11-10T10:05:30.620Z,11.89
2022-11-10T10:07:04.821Z,11.89
2022-11-10T10:08:04.848Z,11.76
2022-11-10T10:09:51.414Z,11.95
2022-11-10T10:11:37.004Z,12.08
2022-11-10T10:13:09.531Z,12.11
2022-11-10T10:14:32.867Z,12.04
2022-11-10T10:15:44.944Z,11.79
2022-11-10T10:17:00.665Z,11.79
2022-11-10T10:18:16.978Z,11.71
2022-11-10T10:19:23.951Z,11.79
2022-11-10T10:20:46.754Z,11.86
2022-11-10T10:22:25.408Z,11.89
2022-11-10T10:24:07.121Z,11.69
2022-11-10T10:25:02.236Z,11.68
2022-11-10T10:26:04.126Z,11.85
2022-11-10T10:27:11.596Z,11.94
2022-11-10T10:28:19.286Z,12.10
2022-11-10T10:29:30.892Z,12.17
2022-11-10T10:30:36.285Z,12.26
2022-11-10T10:31:43.710Z,12.33
2022-11-10T10:32:45.505Z,12.38
2022-11-10T10:33:47.656Z,12.46
2022-11-10T10:34:49.471Z,12.59
2022-11-10T10:35:51.079Z,12.57
2022-11-10T10:36:52.655Z,12.55
2022-11-10T10:37:57.640Z,12.63
2022-11-10T10:39:12.574Z,12.65
2022-11-10T10:40:23.697Z,12.61
2022-11-10T10:41:28.282Z,12.65
2022-11-10T10:42:32.646Z,12.60
2022-11-10T10:43:34.288Z,12.60
2022-11-10T10:44:36.165Z,12.64
2022-11-10T10:45:42.323Z,12.49
2022-11-10T10:47:10.024Z,12.29
2022-11-10T10:48:29.181Z,12.37
2022-11-10T10:49:33.805Z,12.45
2022-11-10T10:50:41.876Z,12.52
2022-11-10T10:51:43.527Z,12.61
2022-11-10T10:52:45.135Z,12.68
2022-11-10T10:53:48.179Z,12.66
2022-11-10T10:55:00.489Z,12.68
2022-11-10T10:56:15.725Z,12.70
2022-11-10T10:57:24.698Z,12.69
2022-11-10T10:58:28.784Z,12.48
2022-11-10T10:59:31.185Z,12.26
2022-11-10T11:00:33.521Z,12.08
2022-11-10T11:01:38.482Z,12.09
2022-11-10T11:02:40.159Z,12.17
2022-11-10T11:03:44.583Z,12.21
2022-11-10T11:04:46.184Z,12.20
2022-11-10T11:06:03.052Z,12.30
2022-11-10T11:07:19.249Z,12.29
2022-11-10T11:08:21.206Z,12.24
2022-11-10T11:09:27.949Z,12.20
2022-11-10T11:10:35.499Z,12.14
2022-11-10T11:11:40.680Z,12.14
2022-11-10T11:12:42.210Z,12.08
2022-11-10T11:13:43.769Z,12.23
2022-11-10T11:14:46.301Z,12.36
2022-11-10T11:16:02.745Z,12.41
2022-11-10T11:17:19.732Z,12.36
2022-11-10T11:18:22.296Z,12.35
2022-11-10T11:19:27.654Z,12.35
2022-11-10T11:20:38.526Z,12.26
2022-11-10T11:22:18.545Z,12.37
2022-11-10T11:23:58.427Z,12.63
2022-11-10T11:25:08.807Z,12.72
2022-11-10T11:26:44.385Z,12.71
2022-11-10T11:28:16.867Z,12.70
2022-11-10T11:29:41.757Z,12.76
2022-11-10T11:31:02.634Z,12.78
2022-11-10T11:32:41.475Z,12.89
2022-11-10T11:34:00.809Z,13.02
2022-11-10T11:35:24.533Z,13.11
2022-11-10T11:36:32.034Z,13.19
2022-11-10T11:37:56.557Z,13.17
2022-11-10T11:39:06.440Z,13.24
2022-11-10T11:40:28.889Z,13.23
2022-11-10T11:42:23.190Z,13.21
2022-11-10T11:43:39.516Z,13.26
2022-11-10T11:45:18.754Z,13.28
2022-11-10T11:46:49.392Z,13.38
2022-11-10T11:48:06.188Z,13.42
2022-11-10T11:49:34.519Z,13.35
2022-11-10T11:50:54.955Z,13.37
2022-11-10T11:52:19.607Z,13.38
2022-11-10T11:53:23.784Z,13.37
2022-11-10T11:54:52.365Z,13.37
2022-11-10T11:56:25.933Z,13.38
2022-11-10T11:57:46.328Z,13.27
2022-11-10T11:58:56.768Z,13.22
2022-11-10T12:00:12.681Z,13.18
2022-11-10T12:01:29.472Z,13.28
2022-11-10T12:02:42.936Z,13.40
2022-11-10T12:04:35.472Z,13.26
2022-11-10T12:06:24.087Z,13.26
2022-11-10T12:07:55.354Z,13.31
2022-11-10T12:09:33.927Z,13.33
2022-11-10T12:10:43.739Z,13.21
2022-11-10T12:12:04.316Z,13.34
2022-11-10T12:13:44.136Z,13.33
2022-11-10T12:15:00.850Z,13.43
2022-11-10T12:16:09.603Z,13.55
2022-11-10T12:17:28.310Z,13.60
2022-11-10T12:18:30.438Z,13.58
2022-11-10T12:20:16.738Z,13.58
2022-11-10T12:21:35.115Z,13.60
2022-11-10T12:22:51.517Z,13.59
2022-11-10T12:23:59.139Z,13.53
2022-11-10T12:25:19.441Z,13.47
2022-11-10T12:26:27.609Z,13.34
2022-11-10T12:27:35.708Z,13.30
2022-11-10T12:28:47.604Z,13.35
2022-11-10T12:30:06.179Z,13.46
2022-11-10T12:31:15.435Z,13.51
2022-11-10T12:32:32.376Z,13.55
2022-11-10T12:33:50.729Z,13.56
2022-11-10T12:35:18.685Z,13.56
2022-11-10T12:36:22.274Z,13.63
2022-11-10T12:37:33.876Z,13.65
2022-11-10T12:39:03.488Z,13.68
2022-11-10T12:40:13.046Z,13.78
2022-11-10T12:41:16.800Z,13.81
2022-11-10T12:42:22.314Z,13.77
2022-11-10T12:43:39.916Z,13.70
2022-11-10T12:45:05.501Z,13.66
2022-11-10T12:46:12.058Z,13.54
2022-11-10T12:47:20.493Z,13.53
2022-11-10T12:48:23.769Z,13.61
2022-11-10T12:49:35.895Z,13.68
2022-11-10T12:50:40.355Z,13.61
2022-11-10T12:52:09.173Z,13.58
2022-11-10T12:53:16.779Z,13.67
2022-11-10T12:54:20.674Z,13.76
2022-11-10T12:55:38.734Z,13.80
2022-11-10T12:56:49.444Z,13.83
2022-11-10T12:57:51.479Z,13.84
2022-11-10T12:59:21.044Z,13.86
2022-11-10T13:00:28.398Z,13.88
2022-11-10T13:01:30.450Z,13.93
2022-11-10T13:02:40.303Z,13.93
2022-11-10T13:03:55.676Z,13.96
2022-11-10T13:05:15.459Z,13.95
2022-11-10T13:06:35.839Z,13.88
2022-11-10T13:07:37.729Z,13.81
2022-11-10T13:08:41.874Z,13.87
2022-11-10T13:09:44.636Z,13.98
2022-11-10T13:11:00.397Z,14.04
2022-11-10T13:12:10.716Z,14.04
2022-11-10T13:13:17.077Z,13.99
2022-11-10T13:14:26.017Z,13.61
2022-11-10T13:15:52.904Z,13.59
2022-11-10T13:16:56.230Z,13.70
2022-11-10T13:17:57.978Z,13.76
2022-11-10T13:18:59.696Z,13.80
2022-11-10T13:20:20.752Z,13.75
2022-11-10T13:22:04.833Z,13.77
2022-11-10T13:23:29.524Z,13.96
2022-11-10T13:24:38.399Z,13.97
2022-11-10T13:25:51.355Z,14.03
2022-11-10T13:26:55.501Z,14.02
2022-11-10T13:27:57.139Z,14.02
2022-11-10T13:29:00.959Z,14.06
2022-11-10T13:30:02.662Z,13.90
2022-11-10T13:31:29.306Z,13.84
2022-11-10T13:32:33.467Z,13.92
2022-11-10T13:33:37.520Z,13.93
2022-11-10T13:34:43.797Z,14.00
2022-11-10T13:35:54.950Z,14.10
2022-11-10T13:36:57.309Z,14.19
2022-11-10T13:37:59.336Z,14.22
2022-11-10T13:39:24.393Z,14.27
2022-11-10T13:40:26.012Z,14.33
2022-11-10T13:41:27.916Z,14.28
2022-11-10T13:42:29.905Z,14.21
2022-11-10T13:43:32.003Z,14.16
2022-11-10T13:44:37.503Z,14.09
2022-11-10T13:45:44.959Z,13.95
2022-11-10T13:47:09.739Z,13.76
2022-11-10T13:48:11.284Z,13.79
2022-11-10T13:49:28.821Z,13.84
2022-11-10T13:50:55.358Z,13.84
2022-11-10T13:52:09.187Z,13.94
2022-11-10T13:53:41.670Z,14.07
2022-11-10T13:55:15.784Z,14.15
2022-11-10T13:57:00.912Z,14.27
2022-11-10T13:58:08.331Z,14.14
2022-11-10T13:59:24.071Z,14.06
2022-11-10T14:00:29.532Z,14.05
2022-11-10T14:01:31.090Z,13.97
2022-11-10T14:02:41.756Z,13.93
2022-11-10T14:03:46.423Z,13.83
2022-11-10T14:04:48.931Z,13.75
2022-11-10T14:06:03.684Z,13.67
2022-11-10T14:07:15.407Z,13.67
2022-11-10T14:08:25.276Z,13.75
2022-11-10T14:09:31.585Z,13.85
2022-11-10T14:10:44.657Z,13.94
2022-11-10T14:11:51.440Z,14.02
2022-11-10T14:13:00.857Z,14.06
2022-11-10T14:14:27.298Z,14.14
2022-11-10T14:15:39.096Z,14.21
2022-11-10T14:16:43.096Z,14.26
2022-11-10T14:17:49.587Z,14.33
2022-11-10T14:19:05.885Z,14.34
2022-11-10T14:20:21.162Z,14.38
2022-11-10T14:21:29.332Z,14.34
2022-11-10T14:22:39.281Z,14.35
2022-11-10T14:23:48.747Z,14.41
2022-11-10T14:25:14.082Z,14.42
2022-11-10T14:26:30.462Z,14.41